createdAt,value
2022-10-18T00:00:58.638Z,12.16
2022-10-18T00:03:26.506Z,12.15
2022-10-18T00:05:54.684Z,12.17
2022-10-18T00:08:22.814Z,12.18
2022-10-18T00:10:51.450Z,12.19
2022-10-18T00:13:21.464Z,12.26
2022-10-18T00:15:51.318Z,12.28
2022-10-18T00:18:19.620Z,12.09
2022-10-18T00:20:59.800Z,12.00
2022-10-18T00:23:28.681Z,12.10
2022-10-18T00:26:01.066Z,12.10
2022-10-18T00:28:30.987Z,12.19
2022-10-18T00:30:59.461Z,11.93
2022-10-18T00:33:27.441Z,12.13
2022-10-18T00:35:55.294Z,12.10
2022-10-18T00:38:23.142Z,12.19
2022-10-18T00:40:51.005Z,12.04
2022-10-18T00:43:19.702Z,12.09
2022-10-18T00:45:49.011Z,11.91
2022-10-18T00:48:20.112Z,12.01
2022-10-18T00:50:49.756Z,12.12
2022-10-18T00:53:20.899Z,11.98
2022-10-18T00:55:49.054Z,11.91
2022-10-18T00:58:19.850Z,11.94
2022-10-18T01:00:49.154Z,11.96
2022-10-18T01:03:17.989Z,11.80
2022-10-18T01:05:48.725Z,11.78
2022-10-18T01:08:33.567Z,11.73
2022-10-18T01:11:17.521Z,11.86
2022-10-18T01:14:00.052Z,11.83
2022-10-18T01:16:36.009Z,11.76
2022-10-18T01:19:15.061Z,11.73
2022-10-18T01:21:47.731Z,11.80
2022-10-18T01:24:46.965Z,11.76
2022-10-18T01:27:48.307Z,11.80
2022-10-18T01:30:39.053Z,11.88
2022-10-18T01:33:14.596Z,11.78
2022-10-18T01:35:48.881Z,11.50
2022-10-18T01:38:19.871Z,11.50
2022-10-18T01:40:51.531Z,11.50
2022-10-18T01:43:22.696Z,11.27
2022-10-18T01:45:54.497Z,11.11
2022-10-18T01:48:22.779Z,11.24
2022-10-18T01:50:50.840Z,11.23
2022-10-18T01:53:26.676Z,11.11
2022-10-18T01:56:11.763Z,11.19
2022-10-18T01:58:48.275Z,11.15
2022-10-18T02:01:26.846Z,11.06
2022-10-18T02:03:59.139Z,11.20
2022-10-18T02:06:31.168Z,11.34
2022-10-18T02:09:09.145Z,11.33
2022-10-18T02:11:39.077Z,11.52
2022-10-18T02:14:09.687Z,11.29
2022-10-18T02:16:45.032Z,11.09
2022-10-18T02:19:17.054Z,11.11
2022-10-18T02:21:47.286Z,11.29
2022-10-18T02:24:16.328Z,11.37
2022-10-18T02:26:44.582Z,11.37
2022-10-18T02:29:16.746Z,11.42
2022-10-18T02:31:48.731Z,11.30
2022-10-18T02:34:21.825Z,11.27
2022-10-18T02:36:55.201Z,11.26
2022-10-18T02:39:26.089Z,11.36
2022-10-18T02:41:54.636Z,11.38
2022-10-18T02:44:22.606Z,11.20
2022-10-18T02:46:51.907Z,11.36
2022-10-18T02:49:19.701Z,11.25
2022-10-18T02:51:47.641Z,11.18
2022-10-18T02:54:15.517Z,11.17
2022-10-18T02:56:43.372Z,11.12
2022-10-18T02:59:12.306Z,11.14
2022-10-18T03:01:40.382Z,11.29
2022-10-18T03:04:09.882Z,11.60
2022-10-18T03:06:37.930Z,11.61
2022-10-18T03:09:07.357Z,11.68
2022-10-18T03:11:35.244Z,11.81
2022-10-18T03:14:03.070Z,11.91
2022-10-18T03:16:31.507Z,11.97
2022-10-18T03:18:59.594Z,11.94
2022-10-18T03:21:28.959Z,11.83
2022-10-18T03:23:58.717Z,11.94
2022-10-18T03:26:26.882Z,11.98
2022-10-18T03:28:56.009Z,11.86
2022-10-18T03:31:24.077Z,11.89
2022-10-18T03:33:53.267Z,11.92
2022-10-18T03:36:21.398Z,11.99
2022-10-18T03:38:50.795Z,11.95
2022-10-18T03:41:18.620Z,11.93
2022-10-18T03:43:48.895Z,11.99
2022-10-18T03:46:17.192Z,12.11
2022-10-18T03:48:47.410Z,12.19
2022-10-18T03:51:15.476Z,12.18
2022-10-18T03:53:43.525Z,12.20
2022-10-18T03:56:12.737Z,12.13
2022-10-18T03:58:40.795Z,12.22
2022-10-18T04:01:09.111Z,12.19
2022-10-18T04:03:37.390Z,12.25
2022-10-18T04:06:05.470Z,12.25
2022-10-18T04:08:33.320Z,12.27
2022-10-18T04:11:08.220Z,12.24
2022-10-18T04:13:39.885Z,12.21
2022-10-18T04:16:08.116Z,12.24
2022-10-18T04:18:36.108Z,12.27
2022-10-18T04:21:10.148Z,12.13
2022-10-18T04:23:38.972Z,12.15
2022-10-18T04:26:07.580Z,12.18
2022-10-18T04:28:40.147Z,12.20
2022-10-18T04:31:08.418Z,12.14
2022-10-18T04:33:36.708Z,12.16
2022-10-18T04:36:06.827Z,12.10
2022-10-18T04:38:34.813Z,12.11
2022-10-18T04:41:02.702Z,12.11
2022-10-18T04:43:30.578Z,12.06
2022-10-18T04:46:00.390Z,11.94
2022-10-18T04:48:28.366Z,11.97
2022-10-18T04:50:58.337Z,11.91
2022-10-18T04:53:26.396Z,11.80
2022-10-18T04:55:54.336Z,11.67
2022-10-18T04:58:22.176Z,11.70
2022-10-18T05:00:50.738Z,11.55
2022-10-18T05:03:20.024Z,11.58
2022-10-18T05:06:01.295Z,11.60
2022-10-18T05:08:30.484Z,11.55
2022-10-18T05:11:01.295Z,11.57
2022-10-18T05:13:34.975Z,11.53
2022-10-18T05:16:04.032Z,11.48
2022-10-18T05:18:33.437Z,11.44
2022-10-18T05:21:01.369Z,11.41
2022-10-18T05:23:29.556Z,11.29
2022-10-18T05:26:02.687Z,11.37
2022-10-18T05:28:45.911Z,11.40
2022-10-18T05:31:14.074Z,11.36
2022-10-18T05:33:46.387Z,11.31
2022-10-18T05:36:14.359Z,11.26
2022-10-18T05:38:45.296Z,11.26
2022-10-18T05:41:13.688Z,11.13
2022-10-18T05:43:42.117Z,11.12
2022-10-18T05:46:14.634Z,11.03
2022-10-18T05:48:45.305Z,11.08
2022-10-18T05:51:15.357Z,11.03
2022-10-18T05:53:43.483Z,10.98
2022-10-18T05:56:12.752Z,11.01
2022-10-18T05:58:43.641Z,10.93
2022-10-18T06:01:13.764Z,10.90
2022-10-18T06:03:44.210Z,10.85
2022-10-18T06:06:15.109Z,10.79
2022-10-18T06:08:44.450Z,10.77
2022-10-18T06:11:15.648Z,10.71
2022-10-18T06:13:49.326Z,10.65
2022-10-18T06:16:28.506Z,10.74
2022-10-18T06:19:00.992Z,10.59
2022-10-18T06:21:29.157Z,10.62
2022-10-18T06:23:58.775Z,10.55
2022-10-18T06:26:28.854Z,10.46
2022-10-18T06:28:57.951Z,10.41
2022-10-18T06:31:27.094Z,10.31
2022-10-18T06:33:58.228Z,10.25
2022-10-18T06:36:30.061Z,10.32
2022-10-18T06:38:58.163Z,10.24
2022-10-18T06:41:26.130Z,10.18
2022-10-18T06:43:57.791Z,10.24
2022-10-18T06:46:27.037Z,10.24
2022-10-18T06:49:00.846Z,10.25
2022-10-18T06:51:32.906Z,10.21
2022-10-18T06:54:17.020Z,10.27
2022-10-18T06:56:46.770Z,10.40
2022-10-18T06:59:15.150Z,10.48
2022-10-18T07:01:43.597Z,10.51
2022-10-18T07:04:11.563Z,10.50
2022-10-18T07:06:43.077Z,10.58
2022-10-18T07:09:11.071Z,10.67
2022-10-18T07:11:39.176Z,10.70
2022-10-18T07:14:07.322Z,10.72
2022-10-18T07:16:36.147Z,10.77
2022-10-18T07:19:04.475Z,10.67
2022-10-18T07:21:32.523Z,10.84
2022-10-18T07:24:01.863Z,10.82
2022-10-18T07:26:31.371Z,10.71
2022-10-18T07:29:02.475Z,10.88
2022-10-18T07:31:31.278Z,11.08
2022-10-18T07:33:59.001Z,10.99
2022-10-18T07:36:27.569Z,10.71
2022-10-18T07:38:55.562Z,10.93
2022-10-18T07:41:24.985Z,11.02
2022-10-18T07:43:55.283Z,10.95
2022-10-18T07:46:27.070Z,11.07
2022-10-18T07:48:57.683Z,11.05
2022-10-18T07:51:25.634Z,10.96
2022-10-18T07:53:53.426Z,11.10
2022-10-18T07:56:23.843Z,10.97
2022-10-18T07:58:54.449Z,11.10
2022-10-18T08:01:23.724Z,11.39
2022-10-18T08:03:53.881Z,11.67
2022-10-18T08:06:24.302Z,11.45
2022-10-18T08:08:52.274Z,11.55
2022-10-18T08:11:28.752Z,11.89
2022-10-18T08:13:56.723Z,11.86
2022-10-18T08:16:26.634Z,11.68
2022-10-18T08:18:55.248Z,11.79
2022-10-18T08:21:23.242Z,11.47
2022-10-18T08:23:51.752Z,11.98
2022-10-18T08:26:22.375Z,11.89
2022-10-18T08:29:10.361Z,11.97
2022-10-18T08:31:40.210Z,12.68
2022-10-18T08:34:08.416Z,12.93
2022-10-18T08:36:38.557Z,12.66
2022-10-18T08:39:07.550Z,12.69
2022-10-18T08:41:52.809Z,12.67
2022-10-18T08:44:25.286Z,12.82
2022-10-18T08:46:57.674Z,13.20
2022-10-18T08:49:29.221Z,13.20
2022-10-18T08:51:58.498Z,13.42
2022-10-18T08:54:33.076Z,13.52
2022-10-18T08:57:03.347Z,13.91
2022-10-18T08:59:39.540Z,14.19
2022-10-18T09:02:18.239Z,14.36
2022-10-18T09:05:01.611Z,14.25
2022-10-18T09:07:54.019Z,14.31
2022-10-18T09:10:34.584Z,14.85
2022-10-18T09:13:19.725Z,15.62
2022-10-18T09:15:52.845Z,15.48
2022-10-18T09:18:44.935Z,15.25
2022-10-18T09:21:20.943Z,15.51
2022-10-18T09:23:50.463Z,16.24
2022-10-18T09:26:20.804Z,16.64
2022-10-18T09:29:03.227Z,17.18
2022-10-18T09:31:43.777Z,16.98
2022-10-18T09:34:20.156Z,16.61
2022-10-18T09:36:51.524Z,17.33
2022-10-18T09:39:24.243Z,18.08
2022-10-18T09:42:00.403Z,18.26
2022-10-18T09:44:35.855Z,18.10
2022-10-18T09:47:16.821Z,18.04
2022-10-18T09:49:49.167Z,17.54
2022-10-18T09:52:22.628Z,17.79
2022-10-18T09:54:56.914Z,18.12
2022-10-18T09:57:32.884Z,18.34
2022-10-18T10:00:04.346Z,19.54
2022-10-18T10:02:35.042Z,19.60
2022-10-18T10:05:03.253Z,19.58
2022-10-18T10:07:42.252Z,18.47
2022-10-18T10:10:21.267Z,18.26
2022-10-18T10:12:50.306Z,18.44
2022-10-18T10:15:23.474Z,19.23
2022-10-18T10:18:04.284Z,18.76
2022-10-18T10:20:37.279Z,18.58
2022-10-18T10:23:15.522Z,17.62
2022-10-18T10:25:45.046Z,16.89
2022-10-18T10:28:17.548Z,17.31
2022-10-18T10:30:46.915Z,17.77
2022-10-18T10:33:36.796Z,18.22
2022-10-18T10:36:18.991Z,18.00
2022-10-18T10:38:47.206Z,18.13
2022-10-18T10:41:21.990Z,17.65
2022-10-18T10:43:51.640Z,17.36
2022-10-18T10:46:23.185Z,17.66
2022-10-18T10:49:08.406Z,16.97
2022-10-18T10:51:45.211Z,17.42
2022-10-18T10:54:18.031Z,16.61
2022-10-18T10:56:57.864Z,17.29
2022-10-18T10:59:28.245Z,17.73
2022-10-18T11:02:23.231Z,17.72
2022-10-18T11:04:53.916Z,17.92
2022-10-18T11:07:27.254Z,18.69
2022-10-18T11:10:02.419Z,19.19
2022-10-18T11:12:34.867Z,19.26
2022-10-18T11:15:31.592Z,19.33
2022-10-18T11:18:09.262Z,19.60
2022-10-18T11:20:42.865Z,19.77
2022-10-18T11:23:13.595Z,19.37
2022-10-18T11:26:00.218Z,19.78
2022-10-18T11:28:45.377Z,20.30
2022-10-18T11:31:19.246Z,20.23
2022-10-18T11:34:09.878Z,20.00
2022-10-18T11:36:57.983Z,19.46
2022-10-18T11:39:49.393Z,20.40
2022-10-18T11:42:26.790Z,21.10
2022-10-18T11:45:08.042Z,20.48
2022-10-18T11:47:45.978Z,21.52
2022-10-18T11:50:26.649Z,19.83
2022-10-18T11:53:10.267Z,21.13
2022-10-18T11:55:55.944Z,21.85
2022-10-18T11:58:43.992Z,21.89
2022-10-18T12:01:27.660Z,19.07
2022-10-18T12:04:08.368Z,17.53
2022-10-18T12:06:44.409Z,16.51
2022-10-18T12:09:22.913Z,17.93
2022-10-18T12:11:56.926Z,18.11
2022-10-18T12:14:29.009Z,19.56
2022-10-18T12:17:35.870Z,18.14
2022-10-18T12:19:55.940Z,18.68
2022-10-18T12:22:39.448Z,19.38
2022-10-18T12:25:13.706Z,20.10
2022-10-18T12:27:47.881Z,21.66
2022-10-18T12:30:25.668Z,21.20
2022-10-18T12:33:03.737Z,21.55
2022-10-18T12:35:59.668Z,23.34
2022-10-18T12:38:33.002Z,22.19
2022-10-18T12:41:04.478Z,22.23
2022-10-18T12:43:37.639Z,21.56
2022-10-18T12:46:13.308Z,23.41
2022-10-18T12:48:45.472Z,22.74
2022-10-18T12:51:16.799Z,23.12
2022-10-18T12:53:46.995Z,22.98
2022-10-18T12:56:37.609Z,19.87
2022-10-18T12:59:51.313Z,18.39
2022-10-18T13:02:31.442Z,18.05
2022-10-18T13:05:02.389Z,17.41
2022-10-18T13:07:50.004Z,17.26
2022-10-18T13:10:42.427Z,19.27
2022-10-18T13:13:39.133Z,19.87
2022-10-18T13:16:15.901Z,21.11
2022-10-18T13:18:53.536Z,21.34
2022-10-18T13:21:28.607Z,22.09
2022-10-18T13:24:19.337Z,22.66
2022-10-18T13:27:18.075Z,23.06
2022-10-18T13:30:12.439Z,23.13
2022-10-18T13:32:51.479Z,23.12
2022-10-18T13:35:50.983Z,23.17
2022-10-18T13:38:47.232Z,23.63
2022-10-18T13:41:18.531Z,22.58
2022-10-18T13:44:00.651Z,20.96
2022-10-18T13:47:01.947Z,22.57
2022-10-18T13:49:43.483Z,22.26
2022-10-18T13:52:25.213Z,22.35
2022-10-18T13:55:17.674Z,22.95
2022-10-18T13:57:58.320Z,21.44
2022-10-18T14:00:48.263Z,19.53
2022-10-18T14:03:58.525Z,18.56
2022-10-18T14:06:29.880Z,17.61
2022-10-18T14:09:09.735Z,17.69
2022-10-18T14:11:51.617Z,18.10
2022-10-18T14:14:26.502Z,18.87
2022-10-18T14:17:03.141Z,18.44
2022-10-18T14:19:37.737Z,19.13
2022-10-18T14:22:24.746Z,19.44
2022-10-18T14:25:03.035Z,20.26
2022-10-18T14:27:37.088Z,20.97
2022-10-18T14:30:12.081Z,19.44
2022-10-18T14:32:45.081Z,18.96
2022-10-18T14:35:37.365Z,18.07
2022-10-18T14:38:14.486Z,17.44
2022-10-18T14:40:42.459Z,16.68
2022-10-18T14:43:13.664Z,15.88
2022-10-18T14:45:42.615Z,15.36
2022-10-18T14:48:17.181Z,15.07
2022-10-18T14:50:48.342Z,14.99
2022-10-18T14:53:21.033Z,14.95
2022-10-18T14:55:55.824Z,14.86
2022-10-18T14:58:24.049Z,14.82
2022-10-18T15:00:51.983Z,14.89
2022-10-18T15:03:20.263Z,14.78
2022-10-18T15:05:57.614Z,14.91
2022-10-18T15:08:30.985Z,14.89
2022-10-18T15:10:59.951Z,14.71
2022-10-18T15:13:28.506Z,14.43
2022-10-18T15:15:57.338Z,14.19
2022-10-18T15:18:27.329Z,14.18
2022-10-18T15:21:22.756Z,14.03
2022-10-18T15:23:52.478Z,13.91
2022-10-18T15:26:26.539Z,13.81
2022-10-18T15:29:00.422Z,13.70
2022-10-18T15:31:34.662Z,13.64
2022-10-18T15:34:11.645Z,13.61
2022-10-18T15:36:40.131Z,13.65
2022-10-18T15:39:17.045Z,13.68
2022-10-18T15:41:48.967Z,13.62
2022-10-18T15:44:31.681Z,13.51
2022-10-18T15:47:23.560Z,13.50
2022-10-18T15:49:55.372Z,13.51
2022-10-18T15:52:38.245Z,13.45
2022-10-18T15:55:48.292Z,13.36
2022-10-18T15:58:25.697Z,13.29
2022-10-18T16:00:58.334Z,13.19
2022-10-18T16:03:26.940Z,13.08
2022-10-18T16:05:59.240Z,13.01
2022-10-18T16:08:36.704Z,13.00
2022-10-18T16:11:06.169Z,12.93
2022-10-18T16:13:38.479Z,12.94
2022-10-18T16:16:06.462Z,12.84
2022-10-18T16:18:34.488Z,12.84
2022-10-18T16:21:02.971Z,12.74
2022-10-18T16:23:30.776Z,12.70
2022-10-18T16:26:00.224Z,12.61
2022-10-18T16:28:33.057Z,12.58
2022-10-18T16:31:03.845Z,12.44
2022-10-18T16:33:31.764Z,12.46
2022-10-18T16:36:00.661Z,12.45
2022-10-18T16:38:32.772Z,12.43
2022-10-18T16:41:05.837Z,12.46
2022-10-18T16:43:36.626Z,12.45
2022-10-18T16:46:06.570Z,12.50
2022-10-18T16:48:35.131Z,12.59
2022-10-18T16:51:03.223Z,12.46
2022-10-18T16:53:31.061Z,12.47
2022-10-18T16:56:03.245Z,12.53
2022-10-18T16:58:33.439Z,12.59
2022-10-18T17:01:05.337Z,12.57
2022-10-18T17:03:35.990Z,12.52
2022-10-18T17:06:03.956Z,12.52
2022-10-18T17:08:32.556Z,12.53
2022-10-18T17:11:01.724Z,12.43
2022-10-18T17:13:30.694Z,12.50
2022-10-18T17:16:03.744Z,12.44
2022-10-18T17:18:33.219Z,12.45
2022-10-18T17:21:03.439Z,12.33
2022-10-18T17:23:31.770Z,12.42
2022-10-18T17:26:08.620Z,12.47
2022-10-18T17:28:51.860Z,12.48
2022-10-18T17:31:23.929Z,12.47
2022-10-18T17:33:54.504Z,12.47
2022-10-18T17:36:23.086Z,12.48
2022-10-18T17:38:52.049Z,12.62
2022-10-18T17:41:22.772Z,12.52
2022-10-18T17:43:50.993Z,12.53
2022-10-18T17:46:19.668Z,12.51
2022-10-18T17:48:49.230Z,12.50
2022-10-18T17:51:18.410Z,12.53
2022-10-18T17:53:46.658Z,12.36
2022-10-18T17:56:15.528Z,12.44
2022-10-18T17:58:44.497Z,12.36
2022-10-18T18:01:15.142Z,12.22
2022-10-18T18:03:43.665Z,12.28
2022-10-18T18:06:18.465Z,12.26
2022-10-18T18:08:47.264Z,12.19
2022-10-18T18:11:16.108Z,12.07
2022-10-18T18:13:44.099Z,12.07
2022-10-18T18:16:14.070Z,12.03
2022-10-18T18:18:42.161Z,11.99
2022-10-18T18:21:10.388Z,11.97
2022-10-18T18:23:39.908Z,11.87
2022-10-18T18:26:08.073Z,11.83
2022-10-18T18:28:45.690Z,11.88
2022-10-18T18:31:19.548Z,11.79
2022-10-18T18:33:47.683Z,11.86
2022-10-18T18:36:15.576Z,11.85
2022-10-18T18:38:45.439Z,11.76
2022-10-18T18:41:15.288Z,11.68
2022-10-18T18:43:45.512Z,11.67
2022-10-18T18:46:15.840Z,11.69
2022-10-18T18:48:44.035Z,11.71
2022-10-18T18:51:17.505Z,11.76
2022-10-18T18:53:48.210Z,11.76
2022-10-18T18:58:54.954Z,11.75
2022-10-18T19:01:24.652Z,11.67
2022-10-18T19:03:55.125Z,11.65
2022-10-18T19:06:24.774Z,11.54
2022-10-18T19:09:00.284Z,11.42
2022-10-18T19:11:30.214Z,11.41
2022-10-18T19:13:58.088Z,11.25
2022-10-18T19:16:27.700Z,11.16
2022-10-18T19:18:58.435Z,10.99
2022-10-18T19:21:28.350Z,10.96
2022-10-18T19:23:58.016Z,10.95
2022-10-18T19:26:35.563Z,10.92
2022-10-18T19:29:07.124Z,10.88
2022-10-18T19:31:36.018Z,10.89
2022-10-18T19:34:05.190Z,10.94
2022-10-18T19:36:33.452Z,10.98
2022-10-18T19:39:03.187Z,10.97
2022-10-18T19:41:31.072Z,10.99
2022-10-18T19:43:59.417Z,11.08
2022-10-18T19:46:27.670Z,11.13
2022-10-18T19:48:55.622Z,11.13
2022-10-18T19:51:28.321Z,11.07
2022-10-18T19:53:57.656Z,11.11
2022-10-18T19:56:30.323Z,11.11
2022-10-18T19:59:01.243Z,11.07
2022-10-18T20:01:30.162Z,11.05
2022-10-18T20:03:59.125Z,10.95
2022-10-18T20:06:27.300Z,10.92
2022-10-18T20:08:55.689Z,10.88
2022-10-18T20:11:25.384Z,10.86
2022-10-18T20:13:54.723Z,10.87
2022-10-18T20:16:28.183Z,10.80
2022-10-18T20:18:58.181Z,10.77
2022-10-18T20:21:26.552Z,10.84
2022-10-18T20:23:54.650Z,10.90
2022-10-18T20:26:25.225Z,11.08
2022-10-18T20:28:57.730Z,11.11
2022-10-18T20:31:29.534Z,11.23
2022-10-18T20:33:58.643Z,11.27
2022-10-18T20:36:27.324Z,11.34
2022-10-18T20:38:55.879Z,11.43
2022-10-18T20:41:25.550Z,11.44
2022-10-18T20:43:58.334Z,11.44
2022-10-18T20:46:27.157Z,11.44
2022-10-18T20:48:55.629Z,11.48
2022-10-18T20:51:24.115Z,11.43
2022-10-18T20:53:53.402Z,11.50
2022-10-18T20:56:23.007Z,11.48
2022-10-18T20:58:52.541Z,11.56
2022-10-18T21:01:23.646Z,11.58
2022-10-18T21:03:52.906Z,11.53
2022-10-18T21:06:22.799Z,11.55
2022-10-18T21:08:54.342Z,11.48
2022-10-18T21:11:23.159Z,11.48
2022-10-18T21:13:52.211Z,11.46
2022-10-18T21:16:22.353Z,11.40
2022-10-18T21:18:50.473Z,11.42
2022-10-18T21:21:20.130Z,11.40
2022-10-18T21:23:48.477Z,11.44
2022-10-18T21:26:18.346Z,11.37
2022-10-18T21:28:47.177Z,11.28
2022-10-18T21:31:17.222Z,11.34
2022-10-18T21:33:47.514Z,11.26
2022-10-18T21:36:15.914Z,11.24
2022-10-18T21:38:46.856Z,11.18
2022-10-18T21:41:16.764Z,11.01
2022-10-18T21:43:46.554Z,11.09
2022-10-18T21:46:15.878Z,10.98
2022-10-18T21:48:46.738Z,10.92
2022-10-18T21:51:17.583Z,10.73
2022-10-18T21:53:46.513Z,10.47
2022-10-18T21:56:16.752Z,10.31
2022-10-18T21:58:46.035Z,9.94
2022-10-18T22:01:16.493Z,9.82
2022-10-18T22:03:46.922Z,9.49
2022-10-18T22:06:16.620Z,9.17
2022-10-18T22:08:46.121Z,9.10
2022-10-18T22:11:15.132Z,9.08
2022-10-18T22:13:43.658Z,8.98
2022-10-18T22:16:14.269Z,8.85
2022-10-18T22:18:43.545Z,8.91
2022-10-18T22:21:15.709Z,9.22
2022-10-18T22:23:45.197Z,8.89
2022-10-18T22:26:15.145Z,8.64
2022-10-18T22:28:44.721Z,8.41
2022-10-18T22:31:16.946Z,8.19
2022-10-18T22:33:45.189Z,8.07
2022-10-18T22:36:14.920Z,8.31
2022-10-18T22:38:42.891Z,8.15
2022-10-18T22:41:12.398Z,8.13
2022-10-18T22:43:40.598Z,7.78
2022-10-18T22:46:10.349Z,7.88
2022-10-18T22:48:38.485Z,8.01
2022-10-18T22:51:06.767Z,8.15
2022-10-18T22:53:36.793Z,7.63
2022-10-18T22:56:05.601Z,7.40
2022-10-18T22:58:33.367Z,7.31
2022-10-18T23:01:02.748Z,7.33
2022-10-18T23:03:30.616Z,7.30
2022-10-18T23:05:59.528Z,7.19
2022-10-18T23:08:27.535Z,6.93
2022-10-18T23:10:58.625Z,6.96
2022-10-18T23:13:27.859Z,6.92
2022-10-18T23:16:04.456Z,6.95
2022-10-18T23:18:33.000Z,6.70
2022-10-18T23:21:04.519Z,7.11
2022-10-18T23:23:35.454Z,6.94
2022-10-18T23:26:06.456Z,6.94
2022-10-18T23:28:35.724Z,7.17
2022-10-18T23:31:08.364Z,7.51
2022-10-18T23:33:36.847Z,7.69
2022-10-18T23:36:05.776Z,7.73
2022-10-18T23:38:34.545Z,7.85
2022-10-18T23:41:02.324Z,7.72
2022-10-18T23:43:31.685Z,8.01
2022-10-18T23:45:59.644Z,8.07
2022-10-18T23:48:28.317Z,8.01
2022-10-18T23:50:58.820Z,7.90
2022-10-18T23:53:27.240Z,7.87
2022-10-18T23:55:58.067Z,7.80
2022-10-18T23:58:27.292Z,7.74
